Time;durP1;ratioP1;P1;durP2;ratioP2;P2;SDS_P1;SDS_P2;PMS_P1;PMS_P2;Temp;Humidity;BMP_temperature;BMP_pressure;BME280_temperature;BME280_humidity;BME280_pressure;Samples;Min_cycle;Max_cycle;Signal;HPM_P1;HPM_P2
2021/07/12 00:01:53;;;;;;;1.20;0.82;;;;;;;;;;5076291;28;20028;-85
2021/07/12 00:04:19;;;;;;;1.67;1.38;;;;;;;;;;5078208;28;20025;-87
2021/07/12 00:06:45;;;;;;;1.98;1.58;;;;;;;;;;5077575;28;20099;-85
2021/07/12 00:09:11;;;;;;;4.22;1.05;;;;;;;;;;5085416;28;20485;-86
2021/07/12 00:11:37;;;;;;;1.70;1.08;;;;;;;;;;5070648;28;20032;-86
2021/07/12 00:14:03;;;;;;;1.40;0.80;;;;;;;;;;5075862;28;20390;-86
2021/07/12 00:16:29;;;;;;;1.38;0.93;;;;;;;;;;5083629;28;20107;-85
2021/07/12 00:18:55;;;;;;;4.57;1.33;;;;;;;;;;5084523;28;20036;-86
2021/07/12 00:21:21;;;;;;;1.90;1.05;;;;;;;;;;5074234;28;20036;-86
2021/07/12 00:23:49;;;;;;;3.33;1.23;;;;;;;;;;5088029;28;20029;-85
2021/07/12 00:26:15;;;;;;;3.10;0.88;;;;;;;;;;5074053;28;20033;-86
2021/07/12 00:28:41;;;;;;;2.55;1.50;;;;;;;;;;5076232;28;20020;-85
2021/07/12 00:31:07;;;;;;;1.70;1.23;;;;;;;;;;5079985;28;20097;-86
2021/07/12 00:33:33;;;;;;;1.17;0.88;;;;;;;;;;5086546;28;20434;-85
2021/07/12 00:36:00;;;;;;;1.50;0.75;;;19.40;67.30;;;;;;5072993;28;20485;-87
2021/07/12 00:38:26;;;;;;;1.13;0.95;;;;;;;;;;5070710;28;20075;-85
2021/07/12 00:40:52;;;;;;;3.00;1.17;;;;;;;;;;5084615;28;20565;-86
2021/07/12 00:43:18;;;;;;;1.38;1.00;;;;;;;;;;5084200;28;20016;-86
2021/07/12 00:45:45;;;;;;;3.75;0.73;;;;;;;;;;5078106;28;20127;-86
2021/07/12 00:48:11;;;;;;;6.18;2.85;;;;;;;;;;5076220;28;20488;-86
2021/07/12 00:50:39;;;;;;;6.45;1.20;;;;;;;;;;5088076;28;20041;-86
2021/07/12 00:53:06;;;;;;;3.50;1.00;;;;;;;;;;5075375;28;20016;-84
2021/07/12 00:55:35;;;;;;;2.53;1.00;;;;;;;;;;5074105;28;20392;-86
2021/07/12 00:58:01;;;;;;;2.83;1.30;;;;;;;;;;5074966;28;20486;-86
2021/07/12 01:00:28;;;;;;;2.33;1.15;;;;;;;;;;5081752;28;20085;-85
2021/07/12 01:02:54;;;;;;;3.08;1.10;;;19.50;66.70;;;;;;5086552;28;20024;-86
2021/07/12 01:05:21;;;;;;;6.88;1.75;;;;;;;;;;5086239;28;20046;-85
2021/07/12 01:07:47;;;;;;;3.45;1.33;;;;;;;;;;5092300;28;20027;-87
2021/07/12 01:10:14;;;;;;;1.42;0.90;;;19.70;65.70;;;;;;5083010;28;20102;-86
2021/07/12 01:13:02;;;;;;;1.48;1.00;;;19.80;65.60;;;;;;5086006;28;20028;-85
2021/07/12 01:15:33;;;;;;;2.13;1.58;;;;;;;;;;5084751;28;20039;-86
2021/07/12 01:18:20;;;;;;;8.43;1.17;;;;;;;;;;5086667;28;20020;-86
2021/07/12 01:20:46;;;;;;;;;;;;;;;;;;5072518;28;20036;-85
2021/07/12 01:23:26;;;;;;;0.85;0.52;;;;;;;;;;5069872;28;20448;-86
2021/07/12 01:26:22;;;;;;;7.50;1.65;;;19.80;82.50;;;;;;5074680;28;20035;-85
2021/07/12 01:29:13;;;;;;;8.00;1.30;;;19.90;64.40;;;;;;5079952;28;20036;-86
2021/07/12 01:31:53;;;;;;;1.92;0.95;;;;;;;;;;5074552;28;20032;-86
2021/07/12 01:34:26;;;;;;;3.63;1.58;;;19.70;63.80;;;;;;5083918;28;20051;-86
2021/07/12 01:36:57;;;;;;;2.20;1.08;;;;;;;;;;5086218;28;20543;-86
2021/07/12 01:39:29;;;;;;;1.52;1.05;;;20.10;63.70;;;;;;5084275;28;20039;-86
2021/07/12 01:42:06;;;;;;;1.75;1.05;;;;;;;;;;5072706;28;20028;-86
2021/07/12 01:44:37;;;;;;;2.95;1.13;;;;;;;;;;5069411;28;20579;-86
2021/07/12 01:47:06;;;;;;;2.10;1.25;;;;;;;;;;5074362;28;20116;-85
2021/07/12 01:49:35;;;;;;;1.65;0.90;;;;;;;;;;5082045;28;20144;-85
2021/07/12 01:52:14;;;;;;;1.77;1.23;;;20.10;64.50;;;;;;5079496;28;20032;-86
2021/07/12 01:54:52;;;;;;;1.15;1.02;;;20.10;64.50;;;;;;5075228;28;20020;-85
2021/07/12 01:57:24;;;;;;;3.03;0.93;;;;;;;;;;5083000;28;20029;-87
2021/07/12 02:00:02;;;;;;;2.03;1.05;;;;;;;;;;5086719;28;20459;-86
2021/07/12 02:02:29;;;;;;;3.72;2.00;;;;;;;;;;5070775;28;20021;-85
2021/07/12 02:04:57;;;;;;;1.40;0.95;;;20.10;64.00;;;;;;5087032;28;20488;-86
2021/07/12 02:07:24;;;;;;;2.17;1.38;;;20.10;63.90;;;;;;5075099;28;20497;-86
2021/07/12 02:09:51;;;;;;;0.73;0.70;;;;;;;;;;5084769;28;20116;-85
2021/07/12 02:12:18;;;;;;;10.10;1.42;;;20.10;64.00;;;;;;5088353;28;20089;-85
2021/07/12 02:14:44;;;;;;;2.90;1.58;;;;;;;;;;5075490;28;20086;-85
2021/07/12 02:17:11;;;;;;;1.98;1.00;;;;;;;;;;5089067;28;20032;-86
2021/07/12 02:19:39;;;;;;;1.75;1.02;;;;;;;;;;5086711;28;20038;-86
2021/07/12 02:22:05;;;;;;;4.78;1.77;;;20.00;65.00;;;;;;5087090;28;20050;-86
2021/07/12 02:24:31;;;;;;;1.40;1.00;;;;;;;;;;5087811;28;20047;-85
2021/07/12 02:26:58;;;;;;;8.23;1.40;;;;;;;;;;5076373;28;20028;-86
2021/07/12 02:29:25;;;;;;;1.30;1.00;;;;;;;;;;5075460;28;20040;-86
2021/07/12 02:31:52;;;;;;;1.30;0.75;;;20.00;65.10;;;;;;5087368;28;20055;-86
2021/07/12 02:34:19;;;;;;;1.45;0.88;;;;;;;;;;5079879;28;20037;-86
2021/07/12 02:36:48;;;;;;;1.93;0.80;;;20.00;64.80;;;;;;5078099;28;20040;-85
2021/07/12 02:39:14;;;;;;;3.50;1.35;;;;;;;;;;5090949;28;20081;-86
2021/07/12 02:41:41;;;;;;;2.30;1.42;;;;;;;;;;5073757;28;20131;-87
2021/07/12 02:44:10;;;;;;;1.33;1.10;;;19.90;65.50;;;;;;5089201;28;20028;-86
2021/07/12 02:46:40;;;;;;;1.70;1.23;;;19.90;65.60;;;;;;5078220;28;20489;-85
2021/07/12 02:49:07;;;;;;;1.05;0.93;;;;;;;;;;5077113;28;20040;-85
2021/07/12 02:51:42;;;;;;;1.97;1.17;;;19.90;65.70;;;;;;5077626;28;20024;-86
2021/07/12 02:54:09;;;;;;;1.25;0.80;;;;;;;;;;5075402;28;20083;-85
2021/07/12 02:56:35;;;;;;;2.13;1.13;;;;;;;;;;5089493;28;20016;-86
2021/07/12 02:59:01;;;;;;;3.00;1.40;;;;;;;;;;5077018;28;20493;-86
2021/07/12 03:01:27;;;;;;;2.17;1.33;;;;;;;;;;5085179;28;20136;-85
2021/07/12 03:03:54;;;;;;;1.20;0.90;;;;;;;;;;5083283;28;20032;-86
2021/07/12 03:06:25;;;;;;;5.43;1.40;;;19.70;66.60;;;;;;5084984;28;20027;-86
2021/07/12 03:09:01;;;;;;;1.45;0.90;;;19.70;67.00;;;;;;5089103;28;20036;-86
2021/07/12 03:11:53;;;;;;;1.90;1.50;;;19.70;67.00;;;;;;5073707;28;20044;-86
2021/07/12 03:14:29;;;;;;;1.55;1.02;;;19.70;66.50;;;;;;5086470;28;20068;-86
2021/07/12 03:16:56;;;;;;;2.97;1.77;;;19.70;67.00;;;;;;5076988;28;20568;-85
2021/07/12 03:19:28;;;;;;;1.57;0.90;;;19.70;67.10;;;;;;5082564;28;20024;-86
2021/07/12 03:21:55;;;;;;;2.10;1.17;;;;;;;;;;5084345;28;20030;-85
2021/07/12 03:24:22;;;;;;;1.33;1.17;;;;;;;;;;5087600;28;20420;-87
2021/07/12 03:26:52;;;;;;;1.63;0.77;;;19.60;67.40;;;;;;5073931;28;20421;-85
2021/07/12 03:29:19;;;;;;;2.28;1.15;;;;;;;;;;5073336;28;20020;-86
2021/07/12 03:31:45;;;;;;;1.65;1.33;;;;;;;;;;5077662;28;20074;-86
2021/07/12 03:34:12;;;;;;;2.20;1.27;;;;;;;;;;5080813;28;20028;-85
2021/07/12 03:36:39;;;;;;;3.92;1.75;;;;;;;;;;5086057;28;20057;-86
2021/07/12 03:39:05;;;;;;;2.75;1.42;;;;;;;;;;5088638;28;20425;-86
2021/07/12 03:41:31;;;;;;;2.22;1.25;;;;;;;;;;5073583;28;20208;-86
2021/07/12 03:44:01;;;;;;;1.98;1.13;;;;;;;;;;5087917;28;20436;-85
2021/07/12 03:46:27;;;;;;;1.15;0.98;;;;;;;;;;5085469;28;20035;-86
2021/07/12 03:48:53;;;;;;;17.08;1.65;;;;;;;;;;5084795;28;20027;-85
2021/07/12 03:51:23;;;;;;;4.72;1.55;;;;;;;;;;5085169;28;20482;-87
2021/07/12 03:53:49;;;;;;;1.60;1.10;;;;;;;;;;5088358;28;20081;-86
2021/07/12 03:56:15;;;;;;;5.28;1.17;;;;;;;;;;5074876;28;20060;-86
2021/07/12 03:58:41;;;;;;;10.30;2.97;;;;;;;;;;5085813;28;20511;-87
2021/07/12 04:01:08;;;;;;;3.95;1.40;;;;;;;;;;5080182;28;20029;-86
2021/07/12 04:03:34;;;;;;;1.92;0.90;;;;;;;;;;5076413;28;20039;-86
2021/07/12 04:06:00;;;;;;;2.35;1.20;;;;;;;;;;5087185;28;20397;-87
2021/07/12 04:08:26;;;;;;;2.80;1.20;;;;;;;;;;5087647;28;20016;-86
2021/07/12 04:10:52;;;;;;;1.58;0.95;;;;;;;;;;5078140;28;20040;-85
2021/07/12 04:13:18;;;;;;;3.13;1.70;;;;;;;;;;5077720;28;20024;-85
2021/07/12 04:15:44;;;;;;;2.72;1.65;;;;;;;;;;5073510;28;20036;-86
2021/07/12 04:18:11;;;;;;;4.35;1.40;;;;;;;;;;5077085;28;20059;-86
2021/07/12 04:20:37;;;;;;;2.25;1.60;;;;;;;;;;5071919;28;20649;-87
2021/07/12 04:23:04;;;;;;;1.40;1.07;;;;;;;;;;5071896;28;20218;-86
2021/07/12 04:25:30;;;;;;;9.93;1.55;;;;;;;;;;5076192;28;20074;-86
2021/07/12 04:27:57;;;;;;;3.58;1.67;;;;;;;;;;5075250;28;20024;-86
2021/07/12 04:30:23;;;;;;;8.75;1.75;;;;;;;;;;5072673;28;20035;-86
2021/07/12 04:32:49;;;;;;;2.65;1.30;;;;;;;;;;5088973;28;20489;-86
2021/07/12 04:35:15;;;;;;;4.13;2.13;;;;;;;;;;5071149;28;20020;-86
2021/07/12 04:37:42;;;;;;;4.10;1.73;;;;;;;;;;5085330;28;20048;-87
2021/07/12 04:40:08;;;;;;;3.00;1.67;;;;;;;;;;5082019;28;20111;-86
2021/07/12 04:42:34;;;;;;;3.83;1.95;;;;;;;;;;5072671;28;20033;-87
2021/07/12 04:45:02;;;;;;;2.30;1.63;;;;;;;;;;5074095;28;20035;-86
2021/07/12 04:47:28;;;;;;;5.65;1.58;;;;;;;;;;5087370;28;20031;-86
2021/07/12 04:49:54;;;;;;;3.30;1.40;;;;;;;;;;5072703;28;20082;-86
2021/07/12 04:52:20;;;;;;;3.28;1.67;;;;;;;;;;5086840;28;20067;-87
2021/07/12 04:54:46;;;;;;;3.55;1.75;;;;;;;;;;5087113;28;20111;-86
2021/07/12 04:57:12;;;;;;;3.53;2.10;;;;;;;;;;5084032;28;20082;-85
2021/07/12 04:59:39;;;;;;;2.42;1.70;;;;;;;;;;5087842;28;20040;-87
2021/07/12 05:02:06;;;;;;;3.88;1.55;;;19.10;73.50;;;;;;5086439;28;20266;-86
2021/07/12 05:04:33;;;;;;;2.33;1.70;;;;;;;;;;5075938;28;20044;-86
2021/07/12 05:06:59;;;;;;;2.22;1.65;;;;;;;;;;5075697;28;20020;-86
2021/07/12 05:09:25;;;;;;;4.28;1.85;;;;;;;;;;5079503;28;20052;-86
2021/07/12 05:11:51;;;;;;;2.85;1.60;;;;;;;;;;5072271;28;20028;-87
2021/07/12 05:14:17;;;;;;;4.50;1.92;;;;;;;;;;5073610;28;20021;-85
2021/07/12 05:16:43;;;;;;;10.70;2.25;;;;;;;;;;5106637;27;20130;-86
2021/07/12 05:19:09;;;;;;;2.08;1.33;;;;;;;;;;5080642;28;20565;-86
2021/07/12 05:21:35;;;;;;;3.08;1.80;;;;;;;;;;5079761;28;20036;-86
2021/07/12 05:24:01;;;;;;;3.28;1.75;;;;;;;;;;5088147;28;20134;-85
2021/07/12 05:26:27;;;;;;;4.32;2.17;;;;;;;;;;5087916;28;20171;-86
2021/07/12 05:28:53;;;;;;;4.63;1.70;;;;;;;;;;5088387;28;20057;-86
2021/07/12 05:31:19;;;;;;;3.95;1.92;;;;;;;;;;5076400;28;20222;-87
2021/07/12 05:33:45;;;;;;;5.93;2.00;;;;;;;;;;5075195;28;20485;-85
2021/07/12 05:36:11;;;;;;;7.85;1.58;;;;;;;;;;5073824;28;20035;-86
2021/07/12 05:38:37;;;;;;;3.25;1.88;;;;;;;;;;5072125;28;20040;-86
2021/07/12 05:41:03;;;;;;;4.03;1.65;;;;;;;;;;5070052;28;20164;-86
2021/07/12 05:43:29;;;;;;;4.75;2.00;;;;;;;;;;5071826;28;20097;-86
2021/07/12 05:45:55;;;;;;;4.68;1.38;;;;;;;;;;5074593;28;20027;-87
2021/07/12 05:48:21;;;;;;;3.47;1.65;;;;;;;;;;5079015;28;20589;-89
2021/07/12 05:50:47;;;;;;;1.90;1.30;;;;;;;;;;5071400;28;20492;-88
2021/07/12 05:53:15;;;;;;;8.63;2.00;;;19.90;71.40;;;;;;5090610;28;20024;-87
2021/07/12 05:55:42;;;;;;;3.58;1.40;;;;;;;;;;5084251;28;20028;-89
2021/07/12 05:58:08;;;;;;;4.22;1.35;;;;;;;;;;5082330;28;20697;-88
2021/07/12 06:00:34;;;;;;;6.68;2.03;;;;;;;;;;5083212;28;20485;-88
2021/07/12 06:03:00;;;;;;;3.10;1.35;;;;;;;;;;5077387;28;20024;-88
2021/07/12 06:05:26;;;;;;;6.80;1.70;;;;;;;;;;5069190;28;20644;-87
2021/07/12 06:07:52;;;;;;;7.05;1.33;;;;;;;;;;5076155;28;20105;-88
2021/07/12 06:10:19;;;;;;;4.97;1.38;;;;;;;;;;5088242;28;20098;-89
2021/07/12 06:12:45;;;;;;;2.77;1.93;;;;;;;;;;5085872;28;20022;-77
2021/07/12 06:15:11;;;;;;;2.33;1.23;;;;;;;;;;5076390;28;20111;-78
2021/07/12 06:17:37;;;;;;;3.08;2.13;;;;;;;;;;5067505;28;20025;-77
2021/07/12 06:20:05;;;;;;;2.60;1.48;;;21.00;83.00;;;;;;5073308;28;20033;-78
2021/07/12 06:22:31;;;;;;;;;;;;;;;;;;5073491;28;20029;-78
2021/07/12 06:24:57;;;;;;;2.70;1.02;;;;;;;;;;5075358;28;19977;-78
2021/07/12 06:27:23;;;;;;;2.17;1.30;;;;;;;;;;5082950;28;20028;-79
2021/07/12 06:29:49;;;;;;;2.08;1.77;;;;;;;;;;5070136;28;20060;-79
2021/07/12 06:32:15;;;;;;;2.85;1.52;;;;;;;;;;5083681;28;20465;-79
2021/07/12 06:34:41;;;;;;;3.97;1.88;;;;;;;;;;5073589;28;20077;-79
2021/07/12 06:37:06;;;;;;;6.80;1.40;;;;;;;;;;5077440;28;20040;-77
2021/07/12 06:39:33;;;;;;;3.20;1.58;;;;;;;;;;5080618;28;20036;-79
2021/07/12 06:41:59;;;;;;;2.83;1.73;;;;;;;;;;5071460;28;20374;-80
2021/07/12 06:44:25;;;;;;;4.88;1.65;;;;;;;;;;5070394;28;20111;-81
2021/07/12 06:46:51;;;;;;;2.40;1.65;;;;;;;;;;5072457;28;20112;-81
2021/07/12 06:49:17;;;;;;;4.03;1.30;;;;;;;;;;5082889;28;20034;-80
2021/07/12 06:51:43;;;;;;;4.13;1.27;;;;;;;;;;5080320;28;20032;-80
2021/07/12 06:54:09;;;;;;;5.82;1.63;;;;;;;;;;5075140;28;20051;-80
2021/07/12 06:56:36;;;;;;;1.67;1.35;;;;;;;;;;5072404;28;20036;-79
2021/07/12 06:59:03;;;;;;;6.40;2.30;;;;;;;;;;5076142;28;20129;-79
2021/07/12 07:01:29;;;;;;;2.10;0.93;;;;;;;;;;5076106;28;20033;-78
2021/07/12 07:03:55;;;;;;;2.75;1.40;;;;;;;;;;5075892;28;20060;-78
2021/07/12 07:06:21;;;;;;;5.43;1.50;;;;;;;;;;5074043;28;20059;-79
2021/07/12 07:08:47;;;;;;;2.25;1.08;;;;;;;;;;5087193;28;20036;-79
2021/07/12 07:11:13;;;;;;;2.42;1.30;;;;;;;;;;5073138;28;20063;-77
2021/07/12 07:13:39;;;;;;;3.03;1.45;;;;;;;;;;5085260;28;20032;-81
2021/07/12 07:16:05;;;;;;;1.35;0.85;;;;;;;;;;5083970;28;20118;-81
2021/07/12 07:18:31;;;;;;;2.13;1.25;;;;;;;;;;5088805;28;20093;-82
2021/07/12 07:20:57;;;;;;;1.90;1.42;;;;;;;;;;5082663;28;20024;-92
2021/07/12 07:23:24;;;;;;;2.15;1.70;;;;;;;;;;5091909;28;20051;-90
2021/07/12 07:25:50;;;;;;;1.48;1.38;;;;;;;;;;5093621;28;20031;-93
2021/07/12 07:28:17;;;;;;;2.55;1.30;;;;;;;;;;5092789;28;20085;-91
2021/07/12 07:30:43;;;;;;;1.75;1.20;;;;;;;;;;5092952;28;20036;-93
2021/07/12 07:33:09;;;;;;;2.03;1.38;;;;;;;;;;5092603;28;20035;-92
2021/07/12 07:35:35;;;;;;;1.92;1.60;;;;;;;;;;5090332;28;20505;-93
2021/07/12 07:38:01;;;;;;;5.97;1.85;;;;;;;;;;5090947;28;20101;-94
2021/07/12 07:40:27;;;;;;;1.55;1.38;;;;;;;;;;5084158;28;20118;-92
2021/07/12 07:42:53;;;;;;;2.65;1.42;;;;;;;;;;5084850;28;20020;-92
2021/07/12 07:45:19;;;;;;;5.53;2.08;;;;;;;;;;5091290;28;20024;-95
2021/07/12 07:47:47;;;;;;;4.85;1.45;;;23.70;60.60;;;;;;5088987;28;20119;-92
2021/07/12 07:50:12;;;;;;;;;;;;;;;;;;5091523;28;20669;-93
2021/07/12 07:52:39;;;;;;;2.92;1.77;;;;;;;;;;5086125;28;19961;-92
2021/07/12 07:55:08;;;;;;;2.70;1.77;;;;;;;;;;5091385;28;20077;-93
2021/07/12 07:57:34;;;;;;;2.47;1.75;;;;;;;;;;5090570;28;20074;-94
2021/07/12 08:00:00;;;;;;;8.02;1.27;;;;;;;;;;5087601;28;20074;-91
2021/07/12 08:02:26;;;;;;;8.93;1.00;;;;;;;;;;5092388;28;20043;-95
2021/07/12 08:04:52;;;;;;;2.47;1.27;;;;;;;;;;5090003;28;20012;-95
2021/07/12 08:07:20;;;;;;;3.45;1.58;;;;;;;;;;5091414;28;20382;-95
2021/07/12 08:09:46;;;;;;;2.72;1.30;;;;;;;;;;5088146;28;20122;-94
2021/07/12 08:12:12;;;;;;;2.95;1.45;;;;;;;;;;5088633;28;20473;-96
2021/07/12 08:14:38;;;;;;;7.95;1.92;;;;;;;;;;5088591;28;20038;-94
2021/07/12 08:17:04;;;;;;;1.88;1.23;;;;;;;;;;5091513;28;20026;-95
2021/07/12 08:19:30;;;;;;;4.72;1.20;;;;;;;;;;5093092;28;20556;-94
2021/07/12 08:21:56;;;;;;;2.03;1.10;;;;;;;;;;5090425;28;20024;-95
2021/07/12 08:24:22;;;;;;;4.85;1.50;;;;;;;;;;5087557;28;20021;-96
2021/07/12 08:26:48;;;;;;;2.50;1.45;;;;;;;;;;5098492;28;20028;-95
2021/07/12 08:29:17;;;;;;;2.50;1.20;;;;;;;;;;5087159;28;20520;-95
2021/07/12 08:31:43;;;;;;;3.67;1.60;;;;;;;;;;5096457;28;20047;-92
2021/07/12 08:34:09;;;;;;;2.85;1.30;;;;;;;;;;5092497;28;20027;-90
2021/07/12 08:36:35;;;;;;;7.25;2.22;;;;;;;;;;5083548;28;20058;-91
2021/07/12 08:39:01;;;;;;;3.97;2.10;;;;;;;;;;5087251;28;20020;-90
2021/07/12 08:41:28;;;;;;;5.20;1.45;;;;;;;;;;5084210;28;20038;-90
2021/07/12 08:43:54;;;;;;;17.95;1.75;;;;;;;;;;5090786;28;20024;-91
2021/07/12 08:46:20;;;;;;;2.65;1.60;;;;;;;;;;5086891;28;20032;-94
2021/07/12 08:48:46;;;;;;;4.17;1.50;;;;;;;;;;5091620;28;20026;-90
2021/07/12 08:51:13;;;;;;;2.78;1.30;;;;;;;;;;5091190;28;20028;-90
2021/07/12 08:53:39;;;;;;;3.55;1.70;;;;;;;;;;5088637;28;20020;-91
2021/07/12 08:56:05;;;;;;;6.43;2.10;;;;;;;;;;5090716;28;20027;-89
2021/07/12 08:58:34;;;;;;;4.43;1.48;;;;;;;;;;5088798;28;20038;-89
2021/07/12 09:01:06;;;;;;;6.03;1.65;;;26.80;55.00;;;;;;5092084;28;20050;-90
2021/07/12 09:03:35;;;;;;;17.55;2.63;;;26.90;55.00;;;;;;5097142;28;20020;-92
2021/07/12 09:06:07;;;;;;;5.05;1.73;;;27.10;55.00;;;;;;5091178;28;20036;-90
2021/07/12 09:08:41;;;;;;;3.88;1.00;;;27.10;54.10;;;;;;5089766;28;20032;-89
2021/07/12 09:11:21;;;;;;;3.53;1.27;;;27.50;53.10;;;;;;5089055;28;20054;-91
2021/07/12 09:13:48;;;;;;;1.77;1.00;;;27.90;53.20;;;;;;5107550;28;20042;-93
2021/07/12 09:16:37;;;;;;;2.97;1.60;;;28.20;53.50;;;;;;5091341;28;20028;-93
2021/07/12 09:19:07;;;;;;;4.65;2.13;;;28.60;51.00;;;;;;5086663;28;20059;-95
2021/07/12 09:21:40;;;;;;;2.88;1.70;;;29.10;51.40;;;;;;5086174;28;20032;-93
2021/07/12 09:24:35;;;;;;;5.38;1.13;;;29.50;67.10;;;;;;5090864;28;20111;-92
2021/07/12 09:27:04;;;;;;;2.87;0.97;;;;;;;;;;5088037;28;20027;-93
2021/07/12 09:29:30;;;;;;;2.95;1.33;;;;;;;;;;5088186;28;20423;-93
2021/07/12 09:31:57;;;;;;;3.10;1.45;;;;;;;;;;5089359;28;20072;-91
2021/07/12 09:34:23;;;;;;;3.83;1.60;;;29.80;46.30;;;;;;5089273;28;20016;-91
2021/07/12 09:36:50;;;;;;;3.50;0.93;;;30.20;46.90;;;;;;5086285;28;20027;-90
2021/07/12 09:39:23;;;;;;;4.80;1.13;;;30.90;47.00;;;;;;5086516;28;20624;-95
2021/07/12 09:41:49;;;;;;;6.50;1.67;;;;;;;;;;5096875;28;20039;-94
2021/07/12 09:44:18;;;;;;;3.20;1.55;;;;;;;;;;5094054;28;20028;-95
2021/07/12 09:46:44;;;;;;;2.47;0.82;;;;;;;;;;5095015;28;20035;-94
2021/07/12 09:49:12;;;;;;;4.13;1.30;;;33.10;41.20;;;;;;5098020;28;20032;-95
2021/07/12 09:51:38;;;;;;;6.15;1.80;;;;;;;;;;5095551;28;20119;-95
2021/07/12 09:54:25;;;;;;;5.18;1.33;;;34.10;37.20;;;;;;5100587;28;20032;-95
2021/07/12 09:56:56;;;;;;;3.60;1.30;;;34.60;36.10;;;;;;5091175;28;20135;-96
2021/07/12 09:59:23;;;;;;;3.28;1.27;;;;;;;;;;5095962;28;20149;-96
2021/07/12 10:01:51;;;;;;;2.45;0.90;;;35.70;34.60;;;;;;5098471;28;20028;-95
2021/07/12 10:04:18;;;;;;;3.63;1.88;;;;;;;;;;5091232;28;20032;-96
2021/07/12 10:06:47;;;;;;;4.03;1.92;;;36.30;32.80;;;;;;5090142;28;20039;-95
2021/07/12 10:09:14;;;;;;;4.63;1.63;;;35.50;35.30;;;;;;5087575;28;20028;-95
2021/07/12 10:11:42;;;;;;;3.67;1.60;;;34.70;34.50;;;;;;5095543;28;20104;-95
2021/07/12 10:14:09;;;;;;;3.65;1.90;;;;;;;;;;5097309;28;20046;-96
2021/07/12 10:16:35;;;;;;;3.70;1.92;;;;;;;;;;5094802;28;20719;-94
2021/07/12 10:19:01;;;;;;;2.88;1.45;;;;;;;;;;5093427;28;20048;-96
2021/07/12 10:21:37;;;;;;;3.80;1.35;;;;;;;;;;5093826;28;20028;-95
2021/07/12 10:24:03;;;;;;;3.17;1.60;;;;;;;;;;5090090;28;20028;-94
2021/07/12 10:26:49;;;;;;;3.00;1.70;;;;;;;;;;5099479;28;20023;-95
2021/07/12 10:29:16;;;;;;;4.57;1.33;;;;;;;;;;5094390;28;20046;-93
2021/07/12 10:32:21;;;;;;;2.80;1.33;;;;;;;;;;5094966;28;20139;-94
2021/07/12 10:34:53;;;;;;;6.07;1.58;;;27.50;51.10;;;;;;5053506;28;20029;-95
2021/07/12 10:37:23;;;;;;;3.50;1.05;;;;;;;;;;5055574;28;20120;-88
2021/07/12 10:40:05;;;;;;;4.05;1.30;;;;;;;;;;5054678;28;20457;-90
2021/07/12 10:42:43;;;;;;;2.55;1.65;;;26.60;53.00;;;;;;5036773;28;20142;-91
2021/07/12 10:45:13;;;;;;;3.85;1.70;;;26.30;55.10;;;;;;5052353;28;20024;-90
2021/07/12 10:47:48;;;;;;;3.85;1.70;;;26.10;55.30;;;;;;5034159;28;20579;-89
2021/07/12 10:50:36;;;;;;;2.15;0.98;;;26.00;56.90;;;;;;5032338;28;20071;-93
2021/07/12 10:53:11;;;;;;;1.75;1.20;;;25.80;56.50;;;;;;5053183;28;20125;-91
2021/07/12 10:55:37;;;;;;;2.25;1.50;;;;;;;;;;5054234;28;20464;-90
2021/07/12 10:58:21;;;;;;;2.13;1.27;;;25.50;57.90;;;;;;5056382;28;20029;-92
2021/07/12 11:00:48;;;;;;;2.17;1.02;;;25.30;58.10;;;;;;5054261;28;20108;-94
2021/07/12 11:03:32;;;;;;;4.15;2.03;;;25.20;76.00;;;;;;5054559;28;20021;-95
2021/07/12 11:05:58;;;;;;;3.33;2.05;;;;;;;;;;5063508;28;20035;-94
2021/07/12 11:08:47;;;;;;;5.53;2.25;;;25.10;57.70;;;;;;5093766;28;20024;-94
2021/07/12 11:11:19;;;;;;;4.10;2.25;;;;;;;;;;5087427;28;20044;-95
2021/07/12 11:14:05;;;;;;;3.13;1.83;;;25.20;57.70;;;;;;5081414;28;20402;-95
2021/07/12 11:16:41;;;;;;;3.10;2.03;;;25.00;57.90;;;;;;5085155;28;20028;-92
2021/07/12 11:19:28;;;;;;;2.40;1.50;;;25.00;58.30;;;;;;5084053;28;20051;-91
2021/07/12 11:22:13;;;;;;;;;;;25.00;59.40;;;;;;5085528;28;20039;-95
2021/07/12 11:25:06;;;;;;;3.58;1.52;;;25.00;60.80;;;;;;5090618;28;19908;-93
2021/07/12 11:27:39;;;;;;;3.90;1.83;;;25.00;61.60;;;;;;5090278;28;20037;-95
2021/07/12 11:30:25;;;;;;;1.58;1.27;;;;;;;;;;5092377;28;20528;-92
2021/07/12 11:32:51;;;;;;;10.48;2.25;;;;;;;;;;5088251;28;20021;-92
2021/07/12 11:35:17;;;;;;;4.20;2.13;;;;;;;;;;5092914;28;20020;-92
2021/07/12 11:37:43;;;;;;;3.28;1.90;;;;;;;;;;5081196;28;20064;-89
2021/07/12 11:40:09;;;;;;;5.88;2.45;;;;;;;;;;5079036;28;20485;-94
2021/07/12 11:42:38;;;;;;;3.73;1.67;;;24.20;59.90;;;;;;5082784;28;20475;-89
2021/07/12 11:45:08;;;;;;;3.75;1.92;;;24.20;60.50;;;;;;5088097;28;20032;-90
2021/07/12 11:47:37;;;;;;;3.88;1.90;;;;;;;;;;5086866;28;20119;-91
2021/07/12 11:50:11;;;;;;;4.28;2.15;;;;;;;;;;5090063;28;20036;-90
2021/07/12 11:52:38;;;;;;;7.10;2.08;;;;;;;;;;5089163;28;20036;-90
2021/07/12 11:55:07;;;;;;;3.25;2.15;;;23.60;61.80;;;;;;5074279;28;20047;-90
2021/07/12 11:57:35;;;;;;;3.35;2.47;;;23.60;63.00;;;;;;5085052;28;20028;-87
2021/07/12 12:00:01;;;;;;;5.60;2.05;;;;;;;;;;5088449;28;20058;-91
2021/07/12 12:02:28;;;;;;;4.30;1.95;;;;;;;;;;5073765;28;20028;-92
2021/07/12 12:05:01;;;;;;;11.13;1.77;;;23.50;62.60;;;;;;5074331;28;20024;-94
2021/07/12 12:07:37;;;;;;;3.28;2.35;;;23.60;63.10;;;;;;5074647;28;20377;-90
2021/07/12 12:10:15;;;;;;;4.30;2.20;;;23.70;63.00;;;;;;5074627;28;21233;-89
2021/07/12 12:12:48;;;;;;;3.83;2.13;;;23.80;62.00;;;;;;5073008;28;20111;-90
2021/07/12 12:15:17;;;;;;;3.20;1.85;;;23.80;62.40;;;;;;5073780;28;20098;-89
2021/07/12 12:17:49;;;;;;;6.93;2.92;;;23.90;61.20;;;;;;5072811;28;20052;-88
2021/07/12 12:20:22;;;;;;;4.93;2.40;;;23.90;61.30;;;;;;5085661;28;20032;-92
2021/07/12 12:23:22;;;;;;;3.47;1.73;;;24.00;61.20;;;;;;5073014;28;20029;-94
2021/07/12 12:26:02;;;;;;;4.28;1.92;;;;;;;;;;5078640;28;20112;-90
2021/07/12 12:28:31;;;;;;;6.07;1.70;;;;;;;;;;5076212;28;20550;-87
2021/07/12 12:31:23;;;;;;;5.32;3.20;;;24.50;59.20;;;;;;5077538;28;20068;-88
2021/07/12 12:34:02;;;;;;;5.25;1.80;;;24.50;58.70;;;;;;5080978;28;20028;-87
2021/07/12 12:36:36;;;;;;;3.92;1.88;;;24.50;59.20;;;;;;5088495;28;20025;-90
2021/07/12 12:39:09;;;;;;;4.78;2.35;;;24.20;59.60;;;;;;5073456;28;20093;-91
2021/07/12 12:41:45;;;;;;;5.88;2.35;;;24.30;59.30;;;;;;5089670;28;20024;-92
2021/07/12 12:44:13;;;;;;;2.83;1.65;;;24.10;59.40;;;;;;5072364;28;20527;-89
2021/07/12 12:46:49;;;;;;;5.07;2.80;;;24.00;59.60;;;;;;5084339;28;20020;-93
2021/07/12 12:49:25;;;;;;;2.90;1.50;;;24.00;60.10;;;;;;5088228;28;20093;-90
2021/07/12 12:51:56;;;;;;;3.83;1.75;;;23.90;61.00;;;;;;5081619;28;20082;-89
2021/07/12 12:54:31;;;;;;;5.70;2.20;;;;;;;;;;5091247;28;20474;-90
2021/07/12 12:56:58;;;;;;;3.05;2.05;;;;;;;;;;5072540;28;20532;-90
2021/07/12 12:59:29;;;;;;;3.20;2.33;;;;;;;;;;5088955;28;20062;-90
2021/07/12 13:02:07;;;;;;;6.95;3.13;;;23.20;64.50;;;;;;5074261;28;20032;-94
2021/07/12 13:04:53;;;;;;;7.20;2.42;;;23.10;67.10;;;;;;5072855;28;20020;-90
2021/07/12 13:07:25;;;;;;;7.55;2.30;;;22.90;66.20;;;;;;5085752;28;20031;-89
2021/07/12 13:10:22;;;;;;;4.70;2.25;;;22.80;67.90;;;;;;5078269;28;20536;-87
2021/07/12 13:12:51;;;;;;;2.60;1.90;;;22.80;68.80;;;;;;5071283;28;20090;-89
2021/07/12 13:15:18;;;;;;;4.15;1.92;;;;;;;;;;5079348;28;20032;-88
2021/07/12 13:17:44;;;;;;;2.20;1.52;;;;;;;;;;5071459;28;20024;-88
2021/07/12 13:20:14;;;;;;;7.55;3.00;;;;;;;;;;5088438;28;20028;-91
2021/07/12 13:22:52;;;;;;;3.25;1.63;;;22.60;67.10;;;;;;5096732;28;20149;-90
2021/07/12 13:25:18;;;;;;;;;;;22.50;67.30;;;;;;5071416;28;20071;-93
2021/07/12 13:27:59;;;;;;;6.97;1.92;;;22.40;68.50;;;;;;5084771;28;19991;-94
2021/07/12 13:30:29;;;;;;;9.10;2.10;;;22.30;68.90;;;;;;5084664;28;20070;-92
2021/07/12 13:32:56;;;;;;;4.30;2.25;;;22.20;70.10;;;;;;5073390;28;20025;-90
2021/07/12 13:35:30;;;;;;;2.90;1.92;;;22.20;69.30;;;;;;5092601;28;20024;-94
2021/07/12 13:37:58;;;;;;;3.75;1.80;;;22.10;69.30;;;;;;5092159;28;20509;-93
2021/07/12 13:40:24;;;;;;;2.60;1.90;;;;;;;;;;5074818;28;20036;-93
2021/07/12 13:42:51;;;;;;;3.22;1.98;;;22.00;71.40;;;;;;5081494;28;20031;-92
2021/07/12 13:45:19;;;;;;;4.55;2.17;;;22.00;70.40;;;;;;5072091;28;20139;-93
2021/07/12 13:47:44;;;;;;;;;;;22.10;70.80;;;;;;5072977;28;20020;-93
2021/07/12 13:50:13;;;;;;;2.92;1.73;;;;;;;;;;5081416;28;19916;-88
2021/07/12 13:52:40;;;;;;;2.25;1.80;;;;;;;;;;5089819;28;20501;-92
2021/07/12 13:55:06;;;;;;;6.13;1.88;;;;;;;;;;5090182;28;20489;-91
2021/07/12 13:57:32;;;;;;;7.60;3.60;;;;;;;;;;5081086;28;20025;-91
2021/07/12 13:59:58;;;;;;;3.17;1.95;;;;;;;;;;5090005;28;20031;-90
2021/07/12 14:02:24;;;;;;;2.92;2.38;;;;;;;;;;5084562;28;20016;-92
2021/07/12 14:04:50;;;;;;;5.07;2.95;;;;;;;;;;5084830;28;20055;-91
2021/07/12 14:07:17;;;;;;;3.20;2.53;;;;;;;;;;5085735;28;20039;-93
2021/07/12 14:09:45;;;;;;;6.22;2.13;;;21.80;71.30;;;;;;5091163;28;20524;-90
2021/07/12 14:12:12;;;;;;;2.90;1.85;;;;;;;;;;5085819;28;20027;-91
2021/07/12 14:14:38;;;;;;;5.22;1.77;;;21.60;73.40;;;;;;5072958;28;20028;-92
2021/07/12 14:17:04;;;;;;;1.87;1.63;;;;;;;;;;5091234;28;20032;-91
2021/07/12 14:19:30;;;;;;;4.25;1.83;;;;;;;;;;5073279;28;20056;-93